Time;durP1;ratioP1;P1;durP2;ratioP2;P2;SDS_P1;SDS_P2;PMS_P1;PMS_P2;Temp;Humidity;BMP_temperature;BMP_pressure;BME280_temperature;BME280_humidity;BME280_pressure;Samples;Min_cycle;Max_cycle;Signal;HPM_P1;HPM_P2
2024/03/22 00:00:11;;;;;;;19.48;15.02;;;11.00;99.90;;;;;;5055790;28;20040;-71
2024/03/22 00:02:40;;;;;;;22.55;14.48;;;10.90;99.90;;;;;;5039692;28;20095;-63
2024/03/22 00:05:06;;;;;;;17.83;14.05;;;10.90;99.90;;;;;;5055928;28;20040;-63
2024/03/22 00:07:32;;;;;;;18.13;13.73;;;10.90;99.90;;;;;;5055788;28;20409;-63
2024/03/22 00:09:57;;;;;;;16.95;13.98;;;10.90;99.90;;;;;;5055892;28;20049;-63
2024/03/22 00:12:23;;;;;;;20.52;14.10;;;10.90;99.90;;;;;;5055612;28;20072;-63
2024/03/22 00:14:51;;;;;;;19.00;14.68;;;10.80;99.90;;;;;;5055646;28;20041;-63
2024/03/22 00:17:17;;;;;;;17.23;15.05;;;10.80;99.90;;;;;;5055428;28;20415;-62
2024/03/22 00:19:42;;;;;;;20.00;14.93;;;10.80;99.90;;;;;;5055987;28;20071;-62
2024/03/22 00:22:08;;;;;;;20.92;15.80;;;10.80;99.90;;;;;;5039167;28;20049;-64
2024/03/22 00:24:34;;;;;;;20.00;15.75;;;10.80;99.90;;;;;;5055748;28;20044;-63
2024/03/22 00:27:00;;;;;;;19.52;15.27;;;10.80;99.90;;;;;;5038791;28;20080;-63
2024/03/22 00:29:26;;;;;;;17.08;14.88;;;10.70;99.90;;;;;;5055452;28;20048;-63
2024/03/22 00:31:52;;;;;;;19.17;15.15;;;10.70;99.90;;;;;;5044321;28;20046;-63
2024/03/22 00:34:19;;;;;;;19.52;15.65;;;10.70;99.90;;;;;;5052154;28;20072;-63
2024/03/22 00:36:45;;;;;;;19.85;15.57;;;10.70;99.90;;;;;;5051918;28;20076;-64
2024/03/22 00:39:12;;;;;;;20.60;15.90;;;10.70;99.90;;;;;;5035408;28;20057;-63
2024/03/22 00:41:38;;;;;;;22.00;16.23;;;10.70;99.90;;;;;;5052088;28;20466;-63
2024/03/22 00:44:04;;;;;;;20.50;15.25;;;10.70;99.90;;;;;;5055997;28;20040;-63
2024/03/22 00:46:29;;;;;;;17.90;15.48;;;10.70;99.90;;;;;;5040379;28;20037;-63
2024/03/22 00:48:55;;;;;;;21.30;15.68;;;10.70;99.90;;;;;;5051736;28;20057;-63
2024/03/22 00:51:22;;;;;;;18.90;15.43;;;10.70;99.90;;;;;;5051234;28;20072;-63
2024/03/22 00:53:47;;;;;;;21.75;15.30;;;10.60;99.90;;;;;;5034663;28;20041;-63
2024/03/22 00:56:13;;;;;;;18.08;14.05;;;10.70;99.90;;;;;;5051618;28;20088;-63
2024/03/22 00:58:39;;;;;;;22.27;15.27;;;10.60;99.90;;;;;;5051875;28;20056;-63
2024/03/22 01:01:05;;;;;;;21.33;14.55;;;10.60;99.90;;;;;;5051827;28;20041;-63
2024/03/22 01:03:31;;;;;;;20.38;14.48;;;10.70;99.90;;;;;;5051501;28;20048;-62
2024/03/22 01:05:57;;;;;;;17.65;13.88;;;10.60;99.90;;;;;;5051770;28;20070;-63
2024/03/22 01:08:23;;;;;;;18.23;14.40;;;10.60;99.90;;;;;;5051533;28;20079;-62
2024/03/22 01:10:49;;;;;;;15.40;12.65;;;10.60;99.90;;;;;;5051395;28;20427;-63
2024/03/22 01:13:14;;;;;;;18.75;12.98;;;10.60;99.90;;;;;;5051677;28;20043;-63
2024/03/22 01:15:40;;;;;;;17.30;13.40;;;10.60;99.90;;;;;;5050834;28;20042;-62
2024/03/22 01:18:06;;;;;;;17.70;13.18;;;10.60;99.90;;;;;;5051438;28;20038;-62
2024/03/22 01:20:32;;;;;;;16.55;12.30;;;10.60;99.90;;;;;;5018191;28;20045;-62
2024/03/22 01:22:57;;;;;;;14.32;11.57;;;10.60;99.90;;;;;;5051219;28;20068;-62
2024/03/22 01:25:23;;;;;;;18.42;11.35;;;10.60;99.90;;;;;;5051151;28;20489;-62
2024/03/22 01:27:49;;;;;;;13.93;10.55;;;10.60;99.90;;;;;;5034249;28;20048;-62
2024/03/22 01:30:15;;;;;;;13.10;10.90;;;10.60;99.90;;;;;;5050941;28;20041;-62
2024/03/22 01:32:40;;;;;;;15.82;11.15;;;10.60;99.90;;;;;;5034695;28;20045;-62
2024/03/22 01:35:06;;;;;;;15.88;10.20;;;10.60;99.90;;;;;;5050801;28;20095;-62
2024/03/22 01:37:32;;;;;;;14.80;10.02;;;10.60;99.90;;;;;;5050824;28;20045;-62
2024/03/22 01:39:58;;;;;;;14.68;9.35;;;10.60;99.90;;;;;;5034180;28;20132;-62
2024/03/22 01:42:23;;;;;;;11.50;9.27;;;10.60;99.90;;;;;;5034306;28;20069;-62
2024/03/22 01:44:49;;;;;;;11.57;9.43;;;10.60;99.90;;;;;;5034007;28;20041;-62
2024/03/22 01:47:15;;;;;;;11.85;9.00;;;10.60;99.90;;;;;;5034119;28;20510;-62
2024/03/22 01:49:41;;;;;;;12.43;9.00;;;10.60;99.90;;;;;;5033985;28;20049;-62
2024/03/22 01:52:07;;;;;;;12.80;9.60;;;10.60;99.90;;;;;;5034143;28;20046;-62
2024/03/22 01:54:32;;;;;;;13.52;9.25;;;10.60;99.90;;;;;;5034059;28;20129;-62
2024/03/22 01:56:58;;;;;;;13.88;8.50;;;10.60;99.90;;;;;;5034104;28;20119;-63
2024/03/22 01:59:24;;;;;;;16.75;9.85;;;10.50;99.90;;;;;;5033811;28;20038;-63
2024/03/22 02:01:50;;;;;;;12.90;9.88;;;10.60;99.90;;;;;;5033977;28;20030;-63
2024/03/22 02:04:15;;;;;;;12.13;8.95;;;10.50;99.90;;;;;;5034057;28;20445;-63
2024/03/22 02:06:41;;;;;;;12.52;9.48;;;10.50;99.90;;;;;;5034014;28;20046;-63
2024/03/22 02:09:09;;;;;;;13.57;9.77;;;10.50;99.90;;;;;;5033790;28;20052;-63
2024/03/22 02:11:35;;;;;;;11.50;9.13;;;10.50;99.90;;;;;;5033887;28;20034;-62
2024/03/22 02:14:00;;;;;;;13.63;8.93;;;10.50;99.90;;;;;;5033517;28;20521;-62
2024/03/22 02:16:26;;;;;;;14.63;9.45;;;10.50;99.90;;;;;;5033325;28;20430;-62
2024/03/22 02:18:52;;;;;;;12.10;9.07;;;10.40;99.90;;;;;;5033504;28;20379;-63
2024/03/22 02:21:17;;;;;;;14.23;9.70;;;10.40;99.90;;;;;;5050107;28;20055;-62
2024/03/22 02:23:43;;;;;;;14.13;9.52;;;10.40;99.90;;;;;;5033373;28;20141;-63
2024/03/22 02:26:09;;;;;;;10.60;9.02;;;10.40;99.90;;;;;;5033349;28;20046;-62
2024/03/22 02:28:35;;;;;;;12.35;8.70;;;10.40;99.90;;;;;;5050229;28;20048;-62
2024/03/22 02:31:01;;;;;;;11.35;9.30;;;10.40;99.90;;;;;;5033381;28;20091;-63
2024/03/22 02:33:27;;;;;;;12.20;9.20;;;10.40;99.90;;;;;;5033178;28;20063;-63
2024/03/22 02:35:52;;;;;;;14.35;9.30;;;10.40;99.90;;;;;;5033333;28;20116;-63
2024/03/22 02:38:18;;;;;;;12.13;8.88;;;10.30;99.90;;;;;;5033483;28;20084;-63
2024/03/22 02:40:44;;;;;;;15.38;10.00;;;10.30;99.90;;;;;;5033034;28;20485;-63
2024/03/22 02:43:10;;;;;;;14.45;10.05;;;10.30;99.90;;;;;;5049610;28;20034;-63
2024/03/22 02:45:35;;;;;;;16.17;10.35;;;10.30;99.90;;;;;;5049651;28;20490;-63
2024/03/22 02:48:01;;;;;;;14.32;10.60;;;10.30;99.90;;;;;;5049874;28;20494;-70
2024/03/22 02:50:27;;;;;;;13.25;10.18;;;10.30;99.90;;;;;;5049564;28;20099;-71
2024/03/22 02:52:53;;;;;;;13.43;10.82;;;10.30;99.90;;;;;;5049411;28;20132;-71
2024/03/22 02:55:19;;;;;;;16.67;10.73;;;10.20;99.90;;;;;;5049314;28;20037;-71
2024/03/22 02:57:44;;;;;;;15.05;10.50;;;10.30;99.90;;;;;;5049397;28;20048;-71
2024/03/22 03:00:10;;;;;;;12.50;10.60;;;10.20;99.90;;;;;;5049682;28;20045;-71
2024/03/22 03:02:36;;;;;;;12.90;9.77;;;10.20;99.90;;;;;;5049383;28;20045;-71
2024/03/22 03:05:02;;;;;;;13.05;10.02;;;10.20;99.90;;;;;;5032969;28;20045;-71
2024/03/22 03:07:28;;;;;;;14.77;10.07;;;10.20;99.90;;;;;;5049194;28;20045;-71
2024/03/22 03:09:53;;;;;;;14.75;10.02;;;10.10;99.90;;;;;;5049350;28;20088;-71
2024/03/22 03:12:19;;;;;;;14.27;9.77;;;10.10;99.90;;;;;;5049196;28;20037;-70
2024/03/22 03:14:45;;;;;;;14.10;9.75;;;10.10;99.90;;;;;;5032081;28;20097;-71
2024/03/22 03:17:11;;;;;;;21.27;10.60;;;10.10;99.90;;;;;;5032474;28;20057;-71
2024/03/22 03:19:36;;;;;;;13.68;10.27;;;10.20;99.90;;;;;;5049317;28;20045;-71
2024/03/22 03:22:02;;;;;;;17.17;9.73;;;10.20;99.90;;;;;;5049204;28;20072;-71
2024/03/22 03:24:28;;;;;;;14.45;10.10;;;10.20;99.90;;;;;;5032731;28;20106;-71
2024/03/22 03:26:54;;;;;;;13.48;9.63;;;10.30;99.90;;;;;;5049325;28;20045;-71
2024/03/22 03:29:19;;;;;;;13.00;9.48;;;10.30;99.90;;;;;;5032303;28;20475;-71
2024/03/22 03:31:45;;;;;;;14.55;9.75;;;10.30;99.90;;;;;;5032379;28;20541;-71
2024/03/22 03:34:11;;;;;;;14.32;9.65;;;10.40;99.90;;;;;;5032415;28;20029;-71
2024/03/22 03:36:37;;;;;;;12.13;8.73;;;10.30;99.90;;;;;;5032585;28;20068;-71
2024/03/22 03:39:03;;;;;;;11.55;9.70;;;10.30;99.90;;;;;;5032491;28;20064;-71
2024/03/22 03:41:29;;;;;;;10.73;7.97;;;10.30;99.90;;;;;;5032394;28;20045;-71
2024/03/22 03:43:55;;;;;;;13.95;8.63;;;10.30;99.90;;;;;;5032358;28;20463;-71
2024/03/22 03:46:21;;;;;;;12.45;8.45;;;10.30;99.90;;;;;;5032401;28;20042;-71
2024/03/22 03:48:46;;;;;;;12.60;8.52;;;10.30;99.90;;;;;;5032462;28;20416;-71
2024/03/22 03:51:12;;;;;;;12.63;8.43;;;10.30;99.90;;;;;;5032283;28;20041;-71
2024/03/22 03:53:38;;;;;;;11.70;7.63;;;10.30;99.90;;;;;;5032131;28;20219;-71
2024/03/22 03:56:04;;;;;;;11.25;7.75;;;10.30;99.90;;;;;;5032178;28;20380;-71
2024/03/22 03:58:29;;;;;;;9.90;7.82;;;10.30;99.90;;;;;;5032423;28;20042;-71
2024/03/22 04:00:55;;;;;;;10.73;7.43;;;10.40;99.90;;;;;;5032294;28;20061;-71
2024/03/22 04:03:21;;;;;;;9.32;7.57;;;10.40;99.90;;;;;;5032220;28;20482;-71
2024/03/22 04:05:47;;;;;;;10.85;8.30;;;10.50;99.90;;;;;;5032069;28;20084;-71
2024/03/22 04:08:12;;;;;;;11.93;8.85;;;10.50;99.90;;;;;;5032437;28;20414;-71
2024/03/22 04:10:38;;;;;;;12.10;8.88;;;10.50;99.90;;;;;;5032100;28;20042;-71
2024/03/22 04:13:04;;;;;;;10.85;8.50;;;10.50;99.90;;;;;;5032156;28;20038;-71
2024/03/22 04:15:30;;;;;;;13.32;9.23;;;10.50;99.90;;;;;;5031705;28;20128;-70
2024/03/22 04:17:55;;;;;;;11.95;8.70;;;10.50;99.90;;;;;;5048714;28;20049;-71
2024/03/22 04:20:21;;;;;;;9.75;8.18;;;10.50;99.90;;;;;;5032362;28;20173;-71
2024/03/22 04:22:49;;;;;;;13.73;8.05;;;10.50;99.90;;;;;;5032213;28;20064;-71
2024/03/22 04:25:15;;;;;;;10.70;8.40;;;10.50;99.90;;;;;;5032137;28;20136;-71
2024/03/22 04:27:40;;;;;;;14.75;9.18;;;10.40;99.90;;;;;;5033757;28;20050;-71
2024/03/22 04:30:06;;;;;;;16.33;9.27;;;10.40;99.90;;;;;;5035992;28;20037;-71
2024/03/22 04:32:32;;;;;;;11.50;8.43;;;10.40;99.90;;;;;;5035900;28;20045;-71
2024/03/22 04:34:58;;;;;;;15.10;8.40;;;10.40;99.90;;;;;;5035598;28;20037;-71
2024/03/22 04:37:23;;;;;;;12.10;8.35;;;10.40;99.90;;;;;;5035392;28;20034;-71
2024/03/22 04:39:49;;;;;;;13.77;8.93;;;10.30;99.90;;;;;;5035642;28;20041;-71
2024/03/22 04:42:16;;;;;;;11.45;8.43;;;10.30;99.90;;;;;;5035416;28;20474;-70
2024/03/22 04:44:42;;;;;;;12.05;8.27;;;10.30;99.90;;;;;;5035345;28;20052;-71
2024/03/22 04:47:07;;;;;;;11.70;8.23;;;10.30;99.90;;;;;;5035404;28;20033;-71
2024/03/22 04:49:33;;;;;;;11.68;8.40;;;10.30;99.90;;;;;;5035325;28;20494;-70
2024/03/22 04:51:59;;;;;;;13.45;8.38;;;10.30;99.90;;;;;;5035101;28;20053;-71
2024/03/22 04:54:25;;;;;;;12.55;8.60;;;10.30;99.90;;;;;;5035063;28;20044;-71
2024/03/22 04:56:51;;;;;;;13.32;8.00;;;10.30;99.90;;;;;;5035216;28;20061;-71
2024/03/22 04:59:16;;;;;;;10.45;8.45;;;10.40;99.90;;;;;;5035459;28;20069;-71
2024/03/22 05:01:42;;;;;;;9.90;7.80;;;10.40;99.90;;;;;;5035163;28;20120;-70
2024/03/22 05:04:08;;;;;;;13.05;8.23;;;10.40;99.90;;;;;;5035018;28;20038;-71
2024/03/22 05:06:34;;;;;;;11.43;8.13;;;10.40;99.90;;;;;;5034828;28;20441;-71
2024/03/22 05:08:59;;;;;;;12.63;7.97;;;10.40;99.90;;;;;;5035281;28;20364;-71
2024/03/22 05:11:26;;;;;;;11.68;7.75;;;10.40;99.90;;;;;;5035202;28;20053;-71
2024/03/22 05:13:51;;;;;;;12.13;8.07;;;10.30;99.90;;;;;;5034892;28;20494;-63
2024/03/22 05:16:17;;;;;;;13.32;9.07;;;10.40;99.90;;;;;;5034367;28;20052;-63
2024/03/22 05:18:43;;;;;;;12.50;8.80;;;10.40;99.90;;;;;;5034852;28;20129;-62
2024/03/22 05:21:09;;;;;;;10.68;7.90;;;10.40;99.90;;;;;;5035017;28;20041;-63
2024/03/22 05:23:35;;;;;;;14.10;9.07;;;10.30;99.90;;;;;;5034503;28;20450;-63
2024/03/22 05:26:00;;;;;;;11.98;8.65;;;10.40;99.90;;;;;;5034851;28;20041;-63
2024/03/22 05:28:26;;;;;;;13.40;8.95;;;10.40;99.90;;;;;;5034326;28;20049;-62
2024/03/22 05:30:52;;;;;;;13.25;8.38;;;10.40;99.90;;;;;;5034432;28;20037;-63
2024/03/22 05:33:18;;;;;;;15.32;8.82;;;10.40;99.90;;;;;;5035014;28;20395;-62
2024/03/22 05:35:43;;;;;;;12.40;8.32;;;10.40;99.90;;;;;;5034186;28;20065;-63
2024/03/22 05:38:09;;;;;;;10.95;8.32;;;10.40;99.90;;;;;;5033591;28;20498;-63
2024/03/22 05:40:35;;;;;;;13.73;8.70;;;10.40;99.90;;;;;;5034025;28;20033;-63
2024/03/22 05:43:01;;;;;;;11.57;8.75;;;10.40;99.90;;;;;;5033884;28;20490;-63
2024/03/22 05:45:26;;;;;;;11.43;8.02;;;10.40;99.90;;;;;;5034581;28;20033;-63
2024/03/22 05:47:52;;;;;;;9.77;7.95;;;10.40;99.90;;;;;;5034329;28;20490;-62
2024/03/22 05:50:20;;;;;;;11.23;8.20;;;10.40;99.90;;;;;;5034164;28;20045;-63
2024/03/22 05:52:46;;;;;;;12.25;7.53;;;10.40;99.90;;;;;;5034032;28;20037;-63
2024/03/22 05:55:12;;;;;;;10.50;7.63;;;10.40;99.90;;;;;;5033854;28;20064;-63
2024/03/22 05:57:37;;;;;;;9.50;7.05;;;10.40;99.90;;;;;;5034275;28;20046;-63
2024/03/22 06:00:03;;;;;;;7.80;6.50;;;10.40;99.90;;;;;;5034104;28;20037;-63
2024/03/22 06:02:30;;;;;;;9.98;6.50;;;10.40;99.90;;;;;;5033760;28;20038;-63
2024/03/22 06:04:56;;;;;;;9.98;6.70;;;10.40;99.90;;;;;;5033820;28;20088;-63
2024/03/22 06:07:22;;;;;;;10.15;6.22;;;10.50;99.90;;;;;;5033559;28;20045;-62
2024/03/22 06:09:48;;;;;;;8.65;6.20;;;10.50;99.90;;;;;;5033766;28;20080;-62
2024/03/22 06:12:14;;;;;;;10.73;6.28;;;10.50;99.90;;;;;;5033578;28;20045;-62
2024/03/22 06:14:40;;;;;;;9.10;6.18;;;10.50;99.90;;;;;;5033896;28;20044;-63
2024/03/22 06:17:06;;;;;;;9.82;6.90;;;10.50;99.90;;;;;;5033270;28;20156;-63
2024/03/22 06:19:31;;;;;;;8.98;6.88;;;10.50;99.90;;;;;;5050140;28;20124;-62
2024/03/22 06:21:57;;;;;;;10.38;6.75;;;10.50;99.90;;;;;;5033707;28;20041;-63
2024/03/22 06:24:23;;;;;;;10.13;6.55;;;10.60;99.90;;;;;;5033927;28;20049;-63
2024/03/22 06:26:49;;;;;;;10.10;7.30;;;10.60;99.90;;;;;;5032986;28;20056;-62
2024/03/22 06:29:16;;;;;;;11.75;6.70;;;10.50;99.90;;;;;;5033557;28;20033;-63
2024/03/22 06:31:42;;;;;;;9.10;6.18;;;10.50;99.90;;;;;;5033343;28;20492;-62
2024/03/22 06:34:07;;;;;;;10.68;6.85;;;10.50;99.90;;;;;;5033250;28;20073;-63
2024/03/22 06:36:33;;;;;;;11.43;6.90;;;10.50;99.90;;;;;;5033266;28;20034;-63
2024/03/22 06:38:59;;;;;;;10.93;6.43;;;10.50;99.90;;;;;;5033249;28;20045;-62
2024/03/22 06:41:25;;;;;;;10.77;6.72;;;10.50;99.90;;;;;;5049836;28;20091;-63
2024/03/22 06:43:51;;;;;;;8.45;6.15;;;10.60;99.90;;;;;;5033308;28;20044;-63
2024/03/22 06:46:17;;;;;;;9.57;6.68;;;10.60;99.90;;;;;;5032856;28;20124;-63
2024/03/22 06:48:43;;;;;;;9.25;6.43;;;10.60;99.90;;;;;;5032766;28;20060;-63
2024/03/22 06:51:08;;;;;;;10.32;6.90;;;10.60;99.90;;;;;;5032166;28;20080;-63
2024/03/22 06:53:34;;;;;;;11.43;7.10;;;10.60;99.90;;;;;;5016378;28;20103;-63
2024/03/22 06:56:00;;;;;;;10.48;7.22;;;10.60;99.90;;;;;;5032570;28;20051;-62
2024/03/22 06:58:26;;;;;;;9.68;6.88;;;10.60;99.90;;;;;;5032791;28;20037;-63
2024/03/22 07:00:52;;;;;;;10.75;6.53;;;10.60;99.90;;;;;;5032690;28;20069;-62
2024/03/22 07:03:17;;;;;;;9.25;6.65;;;10.60;99.90;;;;;;5049512;28;20041;-63
2024/03/22 07:05:43;;;;;;;9.45;6.45;;;10.60;99.90;;;;;;5032725;28;20045;-62
2024/03/22 07:08:09;;;;;;;12.00;6.10;;;10.60;99.90;;;;;;5032904;28;20064;-63
2024/03/22 07:10:35;;;;;;;10.98;6.70;;;10.60;99.90;;;;;;5032976;28;20109;-63
2024/03/22 07:13:01;;;;;;;10.98;6.47;;;10.70;99.90;;;;;;5032700;28;20045;-62
2024/03/22 07:15:27;;;;;;;12.27;6.18;;;10.60;99.90;;;;;;5032347;28;20041;-63
2024/03/22 07:17:53;;;;;;;14.05;6.50;;;10.70;99.90;;;;;;5032640;28;20064;-63
2024/03/22 07:20:19;;;;;;;9.23;6.10;;;10.70;99.90;;;;;;5032575;28;20037;-62
2024/03/22 07:22:45;;;;;;;12.02;5.40;;;10.70;99.90;;;;;;5032697;28;20068;-63
2024/03/22 07:25:10;;;;;;;10.88;5.57;;;10.80;99.90;;;;;;5032383;28;20034;-62
2024/03/22 07:27:36;;;;;;;8.90;5.40;;;10.80;99.90;;;;;;5032463;28;20486;-63
2024/03/22 07:30:02;;;;;;;9.45;5.35;;;10.70;99.90;;;;;;5032714;28;20041;-63
2024/03/22 07:32:28;;;;;;;10.38;5.20;;;10.80;99.90;;;;;;5032628;28;20398;-70
2024/03/22 07:34:54;;;;;;;12.20;5.10;;;10.80;99.90;;;;;;5032511;28;20130;-70
2024/03/22 07:37:20;;;;;;;8.57;5.38;;;10.90;99.90;;;;;;5032437;28;20043;-71
2024/03/22 07:39:46;;;;;;;10.60;4.50;;;10.90;99.90;;;;;;5032580;28;20045;-70
2024/03/22 07:42:12;;;;;;;7.95;4.38;;;10.90;99.90;;;;;;5032514;28;20037;-71
2024/03/22 07:44:37;;;;;;;13.55;4.70;;;11.00;99.90;;;;;;5032511;28;20073;-71
2024/03/22 07:47:03;;;;;;;9.38;4.13;;;10.90;99.90;;;;;;5031977;28;20037;-70
2024/03/22 07:49:29;;;;;;;10.65;5.53;;;10.90;99.90;;;;;;5032423;28;20138;-71
2024/03/22 07:51:55;;;;;;;8.50;4.38;;;10.90;99.90;;;;;;5032338;28;20052;-70
2024/03/22 07:54:21;;;;;;;9.00;4.75;;;11.00;99.90;;;;;;5032321;28;20463;-70
2024/03/22 07:56:46;;;;;;;11.13;4.63;;;11.00;99.90;;;;;;5032198;28;20041;-70
2024/03/22 07:59:12;;;;;;;8.23;4.20;;;11.00;99.90;;;;;;5048915;28;20034;-71
2024/03/22 08:01:38;;;;;;;7.55;4.03;;;11.00;99.90;;;;;;5034064;28;20493;-71
2024/03/22 08:04:04;;;;;;;8.25;3.85;;;11.00;99.90;;;;;;5036385;28;20120;-71
2024/03/22 08:06:29;;;;;;;9.45;4.20;;;11.00;99.90;;;;;;5035667;28;20438;-71
2024/03/22 08:08:55;;;;;;;10.88;3.92;;;11.10;99.90;;;;;;5036010;28;20116;-71
2024/03/22 08:11:21;;;;;;;10.15;4.60;;;11.20;99.90;;;;;;5035974;28;20533;-71
2024/03/22 08:13:47;;;;;;;8.60;3.70;;;11.10;99.90;;;;;;5036022;28;20084;-71
2024/03/22 08:16:13;;;;;;;8.23;3.92;;;11.20;99.90;;;;;;5035401;28;20053;-71
2024/03/22 08:18:39;;;;;;;9.25;3.92;;;11.20;99.90;;;;;;5052728;28;20433;-71
2024/03/22 08:21:04;;;;;;;10.10;4.18;;;11.20;99.90;;;;;;5035908;28;20091;-71
2024/03/22 08:23:30;;;;;;;10.35;5.18;;;11.10;99.90;;;;;;5035740;28;20042;-71
2024/03/22 08:25:57;;;;;;;9.18;4.93;;;11.20;99.90;;;;;;5034441;28;20076;-66
2024/03/22 08:28:22;;;;;;;8.30;3.83;;;11.20;99.90;;;;;;5035532;28;20041;-65
2024/03/22 08:30:49;;;;;;;7.38;3.90;;;11.30;99.90;;;;;;5035794;28;20084;-66
2024/03/22 08:33:14;;;;;;;8.95;4.25;;;11.30;99.90;;;;;;5035377;28;20046;-66
2024/03/22 08:35:40;;;;;;;8.35;3.67;;;11.30;99.90;;;;;;5035640;28;20120;-65
2024/03/22 08:38:15;;;;;;;6.40;3.90;;;11.30;99.90;;;;;;5035520;28;20029;-65
2024/03/22 08:40:41;;;;;;;7.75;3.40;;;11.40;99.90;;;;;;5035403;28;20086;-65
2024/03/22 08:43:07;;;;;;;7.28;3.72;;;11.40;99.90;;;;;;5035278;28;20037;-65
2024/03/22 08:45:33;;;;;;;6.60;3.30;;;11.40;99.90;;;;;;5035010;28;20045;-66
2024/03/22 08:47:58;;;;;;;7.40;3.00;;;11.50;99.90;;;;;;5035201;28;20045;-65
2024/03/22 08:50:25;;;;;;;10.90;3.60;;;11.50;99.90;;;;;;5035629;28;20067;-65
2024/03/22 08:52:51;;;;;;;9.07;3.80;;;11.40;99.90;;;;;;5034908;28;20116;-66
2024/03/22 08:55:17;;;;;;;8.43;3.75;;;11.50;99.90;;;;;;5034939;28;20076;-66
2024/03/22 08:57:43;;;;;;;9.15;3.33;;;11.50;99.90;;;;;;5035420;28;20042;-65
2024/03/22 09:00:09;;;;;;;6.90;3.10;;;11.50;99.90;;;;;;5035015;28;20045;-66
2024/03/22 09:02:35;;;;;;;8.07;3.00;;;11.60;99.90;;;;;;5051681;28;20052;-66
2024/03/22 09:05:01;;;;;;;7.55;3.38;;;11.50;99.90;;;;;;5034876;28;20045;-72
2024/03/22 09:07:27;;;;;;;4.95;3.08;;;11.60;99.90;;;;;;5034915;28;20049;-71
2024/03/22 09:09:52;;;;;;;5.75;2.85;;;11.60;99.90;;;;;;5034974;28;20049;-71
2024/03/22 09:12:18;;;;;;;8.43;3.08;;;11.60;99.90;;;;;;5034530;28;20045;-71
2024/03/22 09:14:44;;;;;;;5.03;2.70;;;11.60;99.90;;;;;;5034268;28;20042;-71
2024/03/22 09:17:10;;;;;;;8.38;3.33;;;11.70;99.90;;;;;;5051267;28;20069;-71
2024/03/22 09:19:35;;;;;;;6.90;2.85;;;11.80;99.90;;;;;;5034612;28;20445;-71
2024/03/22 09:22:02;;;;;;;5.05;2.83;;;11.70;99.90;;;;;;5034756;28;20080;-71
2024/03/22 09:24:28;;;;;;;6.45;2.90;;;11.70;99.90;;;;;;5034815;28;20390;-71
2024/03/22 09:26:54;;;;;;;5.88;2.95;;;11.70;99.90;;;;;;5034472;28;20049;-61
2024/03/22 09:29:20;;;;;;;5.78;3.10;;;11.80;99.90;;;;;;5034525;28;20045;-61
2024/03/22 09:31:46;;;;;;;6.88;3.22;;;11.90;99.90;;;;;;5034598;28;20069;-61
2024/03/22 09:34:12;;;;;;;8.65;3.20;;;12.10;99.90;;;;;;5034654;28;20049;-61
2024/03/22 09:36:38;;;;;;;6.13;2.78;;;12.20;99.90;;;;;;5034182;28;20068;-61
2024/03/22 09:39:04;;;;;;;6.30;2.70;;;12.30;99.90;;;;;;5034599;28;20099;-61
2024/03/22 09:41:29;;;;;;;5.50;2.90;;;12.30;99.90;;;;;;5050832;28;20458;-61
2024/03/22 09:43:55;;;;;;;5.97;2.50;;;12.30;99.90;;;;;;5034083;28;20060;-61
2024/03/22 09:46:21;;;;;;;5.15;2.72;;;12.20;99.90;;;;;;5034319;28;20044;-61
2024/03/22 09:48:47;;;;;;;7.30;2.50;;;12.30;99.90;;;;;;5034152;28;20405;-61
2024/03/22 09:51:12;;;;;;;4.50;2.60;;;12.30;99.90;;;;;;5034117;28;20049;-61
2024/03/22 09:53:38;;;;;;;7.55;2.50;;;12.30;99.90;;;;;;5034009;28;20048;-61
2024/03/22 09:56:04;;;;;;;4.88;2.70;;;12.40;99.90;;;;;;5033824;28;20041;-61
2024/03/22 09:58:30;;;;;;;5.38;2.40;;;12.40;99.90;;;;;;5034229;28;20041;-61
2024/03/22 10:01:00;;;;;;;4.72;2.80;;;12.40;99.90;;;;;;5033684;28;20042;-63
2024/03/22 10:03:26;;;;;;;4.78;2.40;;;12.40;99.90;;;;;;5033815;28;20060;-64
2024/03/22 10:05:51;;;;;;;4.50;2.40;;;12.40;99.90;;;;;;5033917;28;20045;-64
2024/03/22 10:08:17;;;;;;;5.28;2.47;;;12.40;99.90;;;;;;5034111;28;20041;-64
2024/03/22 10:10:43;;;;;;;5.28;2.53;;;12.40;99.90;;;;;;5033835;28;20046;-64
2024/03/22 10:13:09;;;;;;;4.40;2.53;;;12.40;99.90;;;;;;5033918;28;20061;-64
2024/03/22 10:15:35;;;;;;;6.07;3.20;;;12.30;99.90;;;;;;5033152;28;20496;-64
2024/03/22 10:18:00;;;;;;;4.15;2.53;;;12.30;99.90;;;;;;5033595;28;20053;-64
2024/03/22 10:20:26;;;;;;;4.30;2.72;;;12.30;99.90;;;;;;5050120;28;20087;-64
2024/03/22 10:22:52;;;;;;;5.88;3.33;;;12.30;99.90;;;;;;5033470;28;20107;-63
2024/03/22 10:25:18;;;;;;;5.00;2.67;;;12.30;99.90;;;;;;5032665;28;20064;-63
2024/03/22 10:27:44;;;;;;;7.10;2.70;;;12.40;99.90;;;;;;5033596;28;20132;-63
2024/03/22 10:30:09;;;;;;;4.70;2.83;;;12.40;99.90;;;;;;5033239;28;20053;-63
2024/03/22 10:32:35;;;;;;;4.30;2.90;;;12.40;99.90;;;;;;5033298;28;20042;-63
2024/03/22 10:35:01;;;;;;;4.75;2.47;;;12.40;99.90;;;;;;5033576;28;20056;-63
2024/03/22 10:37:27;;;;;;;4.20;2.63;;;12.40;99.90;;;;;;5033309;28;20387;-70
2024/03/22 10:39:53;;;;;;;7.28;2.90;;;12.30;99.90;;;;;;5033180;28;20112;-70
2024/03/22 10:42:19;;;;;;;4.95;2.70;;;12.30;99.90;;;;;;5033377;28;20042;-71
2024/03/22 10:44:45;;;;;;;5.47;2.83;;;12.30;99.90;;;;;;5033297;28;20045;-70
2024/03/22 10:47:11;;;;;;;4.32;2.65;;;12.30;99.90;;;;;;5032744;28;20045;-70
2024/03/22 10:49:37;;;;;;;5.18;2.83;;;12.30;99.90;;;;;;5032831;28;20111;-70
2024/03/22 10:52:03;;;;;;;4.60;2.88;;;12.40;99.90;;;;;;5033055;28;20120;-71
2024/03/22 10:54:28;;;;;;;6.55;2.80;;;12.40;99.90;;;;;;5033141;28;20087;-70
2024/03/22 10:56:54;;;;;;;10.57;6.88;;;12.40;99.90;;;;;;5033010;28;20041;-70
2024/03/22 10:59:20;;;;;;;7.13;4.28;;;12.50;99.90;;;;;;5032757;28;20041;-70
2024/03/22 11:01:46;;;;;;;7.25;4.25;;;12.50;99.90;;;;;;5032875;28;20043;-71
2024/03/22 11:04:12;;;;;;;12.32;7.45;;;12.40;99.90;;;;;;5033156;28;20034;-71
2024/03/22 11:06:38;;;;;;;7.53;2.72;;;12.40;99.90;;;;;;5032632;28;20128;-70
2024/03/22 11:09:04;;;;;;;7.55;3.78;;;12.40;99.90;;;;;;5032744;28;20048;-71
2024/03/22 11:11:31;;;;;;;5.82;3.08;;;12.40;99.90;;;;;;5032565;28;20045;-70
2024/03/22 11:13:56;;;;;;;5.65;4.00;;;12.30;99.90;;;;;;5032391;28;20095;-70
2024/03/22 11:16:22;;;;;;;13.98;12.57;;;12.30;99.90;;;;;;5032103;28;20457;-70
2024/03/22 11:18:48;;;;;;;8.43;5.43;;;12.30;99.90;;;;;;5049176;28;20167;-71
2024/03/22 11:21:14;;;;;;;8.32;5.75;;;12.20;99.90;;;;;;5032624;28;20071;-71
2024/03/22 11:23:40;;;;;;;7.50;3.40;;;12.20;99.90;;;;;;5032460;28;20033;-65
2024/03/22 11:26:07;;;;;;;6.10;3.47;;;12.10;99.90;;;;;;5032760;28;20348;-65
2024/03/22 11:28:33;;;;;;;7.25;3.40;;;12.00;99.90;;;;;;5032645;28;20527;-65
2024/03/22 11:30:59;;;;;;;11.20;4.32;;;11.90;99.90;;;;;;5032451;28;20072;-64
2024/03/22 11:33:26;;;;;;;7.22;3.25;;;11.90;99.90;;;;;;5032409;28;20042;-64
2024/03/22 11:35:52;;;;;;;9.77;3.45;;;11.70;99.90;;;;;;5031898;28;20046;-64
2024/03/22 11:38:18;;;;;;;9.57;3.25;;;11.70;99.90;;;;;;5032426;28;20116;-64
2024/03/22 11:40:44;;;;;;;12.20;3.88;;;11.70;99.90;;;;;;5032408;28;20478;-64
2024/03/22 11:43:10;;;;;;;8.07;3.25;;;11.70;99.90;;;;;;5032630;28;20041;-71
2024/03/22 11:45:37;;;;;;;9.63;3.80;;;11.70;99.90;;;;;;5032446;28;20091;-70
2024/03/22 11:48:03;;;;;;;10.13;3.78;;;11.70;99.90;;;;;;5032644;28;20053;-71
2024/03/22 11:50:29;;;;;;;9.07;3.00;;;11.80;99.90;;;;;;5032454;28;20052;-71
2024/03/22 11:52:55;;;;;;;10.40;3.50;;;11.80;99.90;;;;;;5032365;28;20038;-71
2024/03/22 11:55:20;;;;;;;11.85;3.40;;;11.90;99.90;;;;;;5031928;28;20053;-71
2024/03/22 11:57:46;;;;;;;6.28;3.15;;;11.90;99.90;;;;;;5048747;28;20041;-71
2024/03/22 12:00:12;;;;;;;8.18;3.72;;;11.90;99.90;;;;;;5032553;28;20041;-71
2024/03/22 12:02:40;;;;;;;7.75;3.17;;;11.90;99.90;;;;;;5032190;28;20037;-71
2024/03/22 12:05:06;;;;;;;7.03;3.45;;;11.70;99.90;;;;;;5032415;28;20103;-70
2024/03/22 12:07:32;;;;;;;7.45;3.05;;;11.70;99.90;;;;;;5032055;28;20038;-71
2024/03/22 12:09:58;;;;;;;11.20;3.55;;;11.60;99.90;;;;;;5032285;28;20125;-71
2024/03/22 12:12:24;;;;;;;13.20;3.92;;;11.50;99.90;;;;;;5032374;28;20393;-71
2024/03/22 12:14:51;;;;;;;8.88;2.88;;;11.40;99.90;;;;;;5032153;28;20064;-72
2024/03/22 12:17:16;;;;;;;16.80;4.10;;;11.20;99.90;;;;;;5031845;28;20048;-72
2024/03/22 12:19:42;;;;;;;13.55;3.10;;;11.10;99.90;;;;;;5032403;28;20037;-72
2024/03/22 12:22:08;;;;;;;14.15;3.28;;;11.00;99.90;;;;;;5032190;28;20049;-64
2024/03/22 12:24:33;;;;;;;12.40;3.38;;;10.80;99.90;;;;;;5032263;28;20046;-64
2024/03/22 12:26:59;;;;;;;17.25;4.13;;;10.70;99.90;;;;;;5032020;28;20053;-63
2024/03/22 12:29:25;;;;;;;15.57;3.92;;;10.70;99.90;;;;;;5031667;28;20495;-64